sensor_id;sensor_type;location;lat;lon;timestamp;P1;durP1;ratioP1;P2;durP2;ratioP2
8476;SDS011;4275;42.854;23.222;2023-06-26T00:00:48;5.90;;;5.80;;
8476;SDS011;4275;42.854;23.222;2023-06-26T00:03:15;5.97;;;5.88;;
8476;SDS011;4275;42.854;23.222;2023-06-26T00:05:43;6.40;;;6.20;;
8476;SDS011;4275;42.854;23.222;2023-06-26T00:08:10;6.50;;;6.30;;
8476;SDS011;4275;42.854;23.222;2023-06-26T00:10:37;6.50;;;6.30;;
8476;SDS011;4275;42.854;23.222;2023-06-26T00:13:04;7.00;;;6.80;;
8476;SDS011;4275;42.854;23.222;2023-06-26T00:15:31;7.00;;;6.80;;
8476;SDS011;4275;42.854;23.222;2023-06-26T00:17:58;7.07;;;6.88;;
8476;SDS011;4275;42.854;23.222;2023-06-26T00:20:25;7.38;;;7.18;;
8476;SDS011;4275;42.854;23.222;2023-06-26T00:22:53;7.82;;;7.63;;
8476;SDS011;4275;42.854;23.222;2023-06-26T00:25:24;7.80;;;7.60;;
8476;SDS011;4275;42.854;23.222;2023-06-26T00:27:50;8.20;;;8.00;;
8476;SDS011;4275;42.854;23.222;2023-06-26T00:30:18;8.27;;;8.07;;
8476;SDS011;4275;42.854;23.222;2023-06-26T00:32:45;8.80;;;8.50;;
8476;SDS011;4275;42.854;23.222;2023-06-26T00:35:12;9.00;;;8.70;;
8476;SDS011;4275;42.854;23.222;2023-06-26T00:37:39;9.00;;;8.70;;
8476;SDS011;4275;42.854;23.222;2023-06-26T00:40:08;9.20;;;8.90;;
8476;SDS011;4275;42.854;23.222;2023-06-26T00:42:35;9.40;;;9.10;;
8476;SDS011;4275;42.854;23.222;2023-06-26T00:45:02;9.60;;;9.30;;
8476;SDS011;4275;42.854;23.222;2023-06-26T00:47:30;9.75;;;9.45;;
8476;SDS011;4275;42.854;23.222;2023-06-26T00:49:57;9.70;;;9.40;;
8476;SDS011;4275;42.854;23.222;2023-06-26T00:52:24;9.77;;;9.48;;
8476;SDS011;4275;42.854;23.222;2023-06-26T00:54:52;9.50;;;9.20;;
8476;SDS011;4275;42.854;23.222;2023-06-26T00:57:20;9.00;;;8.70;;
8476;SDS011;4275;42.854;23.222;2023-06-26T00:59:47;8.63;;;8.32;;
8476;SDS011;4275;42.854;23.222;2023-06-26T01:02:15;8.05;;;7.85;;
8476;SDS011;4275;42.854;23.222;2023-06-26T01:04:45;7.20;;;7.00;;
8476;SDS011;4275;42.854;23.222;2023-06-26T01:07:13;6.50;;;6.30;;
8476;SDS011;4275;42.854;23.222;2023-06-26T01:09:43;6.40;;;6.20;;
8476;SDS011;4275;42.854;23.222;2023-06-26T01:12:10;5.70;;;5.60;;
8476;SDS011;4275;42.854;23.222;2023-06-26T01:14:38;5.60;;;5.50;;
8476;SDS011;4275;42.854;23.222;2023-06-26T01:17:06;5.65;;;5.55;;
8476;SDS011;4275;42.854;23.222;2023-06-26T01:19:37;5.55;;;5.45;;
8476;SDS011;4275;42.854;23.222;2023-06-26T01:22:09;5.50;;;5.40;;
8476;SDS011;4275;42.854;23.222;2023-06-26T01:24:48;5.40;;;5.30;;
8476;SDS011;4275;42.854;23.222;2023-06-26T01:27:24;5.30;;;5.20;;
8476;SDS011;4275;42.854;23.222;2023-06-26T01:29:52;5.10;;;5.00;;
8476;SDS011;4275;42.854;23.222;2023-06-26T01:32:21;5.00;;;4.90;;
8476;SDS011;4275;42.854;23.222;2023-06-26T01:34:49;5.05;;;4.95;;
8476;SDS011;4275;42.854;23.222;2023-06-26T01:37:16;4.70;;;4.60;;
8476;SDS011;4275;42.854;23.222;2023-06-26T01:39:43;4.70;;;4.60;;
8476;SDS011;4275;42.854;23.222;2023-06-26T01:42:10;4.43;;;4.32;;
8476;SDS011;4275;42.854;23.222;2023-06-26T01:44:40;4.35;;;4.25;;
8476;SDS011;4275;42.854;23.222;2023-06-26T01:47:10;4.40;;;4.30;;
8476;SDS011;4275;42.854;23.222;2023-06-26T01:49:47;4.60;;;4.50;;
8476;SDS011;4275;42.854;23.222;2023-06-26T01:52:18;4.45;;;4.35;;
8476;SDS011;4275;42.854;23.222;2023-06-26T01:54:56;4.35;;;4.25;;
8476;SDS011;4275;42.854;23.222;2023-06-26T01:57:26;4.30;;;4.20;;
8476;SDS011;4275;42.854;23.222;2023-06-26T01:59:56;4.20;;;4.10;;
8476;SDS011;4275;42.854;23.222;2023-06-26T02:02:24;4.00;;;3.90;;
8476;SDS011;4275;42.854;23.222;2023-06-26T02:04:52;3.90;;;3.80;;
8476;SDS011;4275;42.854;23.222;2023-06-26T02:07:19;4.03;;;3.92;;
8476;SDS011;4275;42.854;23.222;2023-06-26T02:09:46;4.20;;;4.10;;
8476;SDS011;4275;42.854;23.222;2023-06-26T02:12:13;4.40;;;4.30;;
8476;SDS011;4275;42.854;23.222;2023-06-26T02:14:40;4.07;;;3.97;;
8476;SDS011;4275;42.854;23.222;2023-06-26T02:17:08;4.28;;;4.18;;
8476;SDS011;4275;42.854;23.222;2023-06-26T02:19:35;4.30;;;4.20;;
8476;SDS011;4275;42.854;23.222;2023-06-26T02:22:10;4.40;;;4.30;;
8476;SDS011;4275;42.854;23.222;2023-06-26T02:24:37;4.20;;;4.10;;
8476;SDS011;4275;42.854;23.222;2023-06-26T02:27:04;4.43;;;4.32;;
8476;SDS011;4275;42.854;23.222;2023-06-26T02:29:31;4.30;;;4.20;;
8476;SDS011;4275;42.854;23.222;2023-06-26T02:31:58;4.20;;;4.10;;
8476;SDS011;4275;42.854;23.222;2023-06-26T02:34:26;4.18;;;4.07;;
8476;SDS011;4275;42.854;23.222;2023-06-26T02:36:54;4.50;;;4.40;;
8476;SDS011;4275;42.854;23.222;2023-06-26T02:39:21;4.43;;;4.32;;
8476;SDS011;4275;42.854;23.222;2023-06-26T02:41:48;4.53;;;4.43;;
8476;SDS011;4275;42.854;23.222;2023-06-26T02:44:15;4.95;;;4.85;;
8476;SDS011;4275;42.854;23.222;2023-06-26T02:46:42;5.20;;;5.10;;
8476;SDS011;4275;42.854;23.222;2023-06-26T02:49:09;4.78;;;4.68;;
8476;SDS011;4275;42.854;23.222;2023-06-26T02:51:38;4.50;;;4.40;;
8476;SDS011;4275;42.854;23.222;2023-06-26T02:54:04;4.47;;;4.38;;
8476;SDS011;4275;42.854;23.222;2023-06-26T02:56:31;4.50;;;4.40;;
8476;SDS011;4275;42.854;23.222;2023-06-26T02:58:58;4.70;;;4.60;;
8476;SDS011;4275;42.854;23.222;2023-06-26T03:01:25;5.10;;;5.00;;
8476;SDS011;4275;42.854;23.222;2023-06-26T03:03:52;4.90;;;4.80;;
8476;SDS011;4275;42.854;23.222;2023-06-26T03:06:19;4.78;;;4.68;;
8476;SDS011;4275;42.854;23.222;2023-06-26T03:08:48;4.43;;;4.32;;
8476;SDS011;4275;42.854;23.222;2023-06-26T03:11:15;4.50;;;4.40;;
8476;SDS011;4275;42.854;23.222;2023-06-26T03:13:42;4.20;;;4.10;;
8476;SDS011;4275;42.854;23.222;2023-06-26T03:16:08;4.30;;;4.20;;
8476;SDS011;4275;42.854;23.222;2023-06-26T03:18:35;4.10;;;4.00;;
8476;SDS011;4275;42.854;23.222;2023-06-26T03:21:02;4.05;;;3.95;;
8476;SDS011;4275;42.854;23.222;2023-06-26T03:23:30;4.00;;;3.90;;
8476;SDS011;4275;42.854;23.222;2023-06-26T03:25:58;4.32;;;4.22;;
8476;SDS011;4275;42.854;23.222;2023-06-26T03:28:25;4.50;;;4.40;;
8476;SDS011;4275;42.854;23.222;2023-06-26T03:40:56;5.60;;;5.50;;
8476;SDS011;4275;42.854;23.222;2023-06-26T03:53:00;10.00;;;9.70;;
8476;SDS011;4275;42.854;23.222;2023-06-26T03:55:27;11.05;;;10.65;;
8476;SDS011;4275;42.854;23.222;2023-06-26T03:58:11;11.10;;;10.70;;
8476;SDS011;4275;42.854;23.222;2023-06-26T04:00:39;10.50;;;10.20;;
8476;SDS011;4275;42.854;23.222;2023-06-26T04:03:07;9.57;;;9.27;;
8476;SDS011;4275;42.854;23.222;2023-06-26T04:21:36;18.70;;;17.40;;
8476;SDS011;4275;42.854;23.222;2023-06-26T04:27:05;17.95;;;16.75;;
8476;SDS011;4275;42.854;23.222;2023-06-26T04:29:42;17.08;;;15.98;;
8476;SDS011;4275;42.854;23.222;2023-06-26T04:38:40;16.73;;;15.73;;
8476;SDS011;4275;42.854;23.222;2023-06-26T04:41:20;17.55;;;16.45;;
8476;SDS011;4275;42.854;23.222;2023-06-26T04:44:02;18.02;;;16.83;;
8476;SDS011;4275;42.854;23.222;2023-06-26T04:46:31;17.80;;;16.70;;
8476;SDS011;4275;42.854;23.222;2023-06-26T05:02:42;17.15;;;16.15;;
8476;SDS011;4275;42.854;23.222;2023-06-26T05:05:09;17.10;;;16.10;;
8476;SDS011;4275;42.854;23.222;2023-06-26T05:07:36;16.77;;;15.88;;
8476;SDS011;4275;42.854;23.222;2023-06-26T05:10:04;17.25;;;16.25;;
8476;SDS011;4275;42.854;23.222;2023-06-26T05:12:32;16.55;;;15.65;;
8476;SDS011;4275;42.854;23.222;2023-06-26T05:14:59;16.70;;;15.80;;
8476;SDS011;4275;42.854;23.222;2023-06-26T05:17:28;16.60;;;15.70;;
8476;SDS011;4275;42.854;23.222;2023-06-26T05:19:55;17.48;;;16.48;;
8476;SDS011;4275;42.854;23.222;2023-06-26T05:22:22;18.83;;;17.63;;
8476;SDS011;4275;42.854;23.222;2023-06-26T05:24:49;18.33;;;17.13;;
8476;SDS011;4275;42.854;23.222;2023-06-26T05:27:21;19.25;;;17.95;;
8476;SDS011;4275;42.854;23.222;2023-06-26T05:29:49;19.00;;;17.60;;
8476;SDS011;4275;42.854;23.222;2023-06-26T05:32:16;18.73;;;17.42;;
8476;SDS011;4275;42.854;23.222;2023-06-26T05:34:46;18.55;;;17.25;;
8476;SDS011;4275;42.854;23.222;2023-06-26T05:37:14;19.70;;;18.30;;
8476;SDS011;4275;42.854;23.222;2023-06-26T05:39:46;18.35;;;17.05;;
8476;SDS011;4275;42.854;23.222;2023-06-26T05:42:14;19.30;;;17.90;;
8476;SDS011;4275;42.854;23.222;2023-06-26T05:44:42;19.40;;;18.00;;
8476;SDS011;4275;42.854;23.222;2023-06-26T05:47:09;18.63;;;17.23;;
8476;SDS011;4275;42.854;23.222;2023-06-26T05:49:36;19.30;;;17.80;;
8476;SDS011;4275;42.854;23.222;2023-06-26T05:52:05;18.40;;;17.00;;
8476;SDS011;4275;42.854;23.222;2023-06-26T05:54:33;17.63;;;16.42;;
8476;SDS011;4275;42.854;23.222;2023-06-26T05:57:01;18.05;;;16.85;;
8476;SDS011;4275;42.854;23.222;2023-06-26T05:59:30;18.20;;;16.92;;
8476;SDS011;4275;42.854;23.222;2023-06-26T06:01:58;18.27;;;16.98;;
8476;SDS011;4275;42.854;23.222;2023-06-26T06:04:25;18.42;;;17.13;;
8476;SDS011;4275;42.854;23.222;2023-06-26T06:06:52;18.08;;;16.77;;
8476;SDS011;4275;42.854;23.222;2023-06-26T06:09:20;18.63;;;17.25;;
8476;SDS011;4275;42.854;23.222;2023-06-26T06:11:47;18.35;;;16.98;;
8476;SDS011;4275;42.854;23.222;2023-06-26T06:14:14;18.55;;;17.15;;
8476;SDS011;4275;42.854;23.222;2023-06-26T06:16:41;18.30;;;16.92;;
8476;SDS011;4275;42.854;23.222;2023-06-26T06:19:08;18.95;;;17.55;;
8476;SDS011;4275;42.854;23.222;2023-06-26T06:21:38;18.50;;;17.20;;
8476;SDS011;4275;42.854;23.222;2023-06-26T06:24:05;18.20;;;16.92;;
8476;SDS011;4275;42.854;23.222;2023-06-26T06:26:34;17.58;;;16.38;;
8476;SDS011;4275;42.854;23.222;2023-06-26T06:29:01;17.83;;;16.67;;
8476;SDS011;4275;42.854;23.222;2023-06-26T06:31:28;17.65;;;16.55;;
8476;SDS011;4275;42.854;23.222;2023-06-26T06:33:55;17.67;;;16.58;;
8476;SDS011;4275;42.854;23.222;2023-06-26T06:36:22;18.13;;;16.92;;
8476;SDS011;4275;42.854;23.222;2023-06-26T06:38:49;18.17;;;16.98;;
8476;SDS011;4275;42.854;23.222;2023-06-26T06:41:16;18.58;;;17.23;;
8476;SDS011;4275;42.854;23.222;2023-06-26T06:43:45;18.83;;;17.42;;
8476;SDS011;4275;42.854;23.222;2023-06-26T06:46:12;18.50;;;17.10;;
8476;SDS011;4275;42.854;23.222;2023-06-26T06:48:39;19.38;;;17.98;;
8476;SDS011;4275;42.854;23.222;2023-06-26T06:51:06;19.48;;;17.98;;
8476;SDS011;4275;42.854;23.222;2023-06-26T06:53:33;20.95;;;19.35;;
8476;SDS011;4275;42.854;23.222;2023-06-26T06:56:00;21.00;;;19.40;;
8476;SDS011;4275;42.854;23.222;2023-06-26T06:58:27;23.05;;;21.15;;
8476;SDS011;4275;42.854;23.222;2023-06-26T07:00:56;22.65;;;20.85;;
8476;SDS011;4275;42.854;23.222;2023-06-26T07:03:23;21.00;;;19.40;;
8476;SDS011;4275;42.854;23.222;2023-06-26T07:05:49;22.15;;;20.35;;
8476;SDS011;4275;42.854;23.222;2023-06-26T07:08:17;22.50;;;20.45;;
8476;SDS011;4275;42.854;23.222;2023-06-26T07:10:44;25.73;;;23.33;;
8476;SDS011;4275;42.854;23.222;2023-06-26T07:13:11;24.40;;;22.10;;
8476;SDS011;4275;42.854;23.222;2023-06-26T07:15:38;23.48;;;21.27;;
8476;SDS011;4275;42.854;23.222;2023-06-26T07:18:06;22.95;;;20.85;;
8476;SDS011;4275;42.854;23.222;2023-06-26T07:20:33;23.08;;;20.98;;
8476;SDS011;4275;42.854;23.222;2023-06-26T07:23:00;22.17;;;20.17;;
8476;SDS011;4275;42.854;23.222;2023-06-26T07:25:27;23.40;;;21.10;;
8476;SDS011;4275;42.854;23.222;2023-06-26T07:27:54;22.05;;;19.80;;
8476;SDS011;4275;42.854;23.222;2023-06-26T07:30:21;22.60;;;20.30;;
8476;SDS011;4275;42.854;23.222;2023-06-26T07:32:49;23.40;;;21.10;;
8476;SDS011;4275;42.854;23.222;2023-06-26T07:35:18;23.33;;;21.02;;
8476;SDS011;4275;42.854;23.222;2023-06-26T07:37:45;23.30;;;21.10;;
8476;SDS011;4275;42.854;23.222;2023-06-26T07:40:12;22.08;;;20.00;;
8476;SDS011;4275;42.854;23.222;2023-06-26T07:42:39;22.33;;;20.33;;
8476;SDS011;4275;42.854;23.222;2023-06-26T07:45:06;22.88;;;20.77;;
8476;SDS011;4275;42.854;23.222;2023-06-26T07:47:36;22.50;;;20.40;;
8476;SDS011;4275;42.854;23.222;2023-06-26T07:50:03;22.58;;;20.48;;
8476;SDS011;4275;42.854;23.222;2023-06-26T07:52:32;21.05;;;19.05;;
8476;SDS011;4275;42.854;23.222;2023-06-26T07:55:02;22.35;;;20.20;;
8476;SDS011;4275;42.854;23.222;2023-06-26T07:57:30;22.92;;;20.73;;
8476;SDS011;4275;42.854;23.222;2023-06-26T07:59:57;22.98;;;20.77;;
8476;SDS011;4275;42.854;23.222;2023-06-26T08:02:24;21.63;;;19.42;;
8476;SDS011;4275;42.854;23.222;2023-06-26T08:04:51;22.10;;;19.90;;
8476;SDS011;4275;42.854;23.222;2023-06-26T08:07:18;22.95;;;20.55;;
8476;SDS011;4275;42.854;23.222;2023-06-26T08:09:47;23.20;;;20.80;;
8476;SDS011;4275;42.854;23.222;2023-06-26T08:12:14;22.98;;;20.58;;
8476;SDS011;4275;42.854;23.222;2023-06-26T08:14:41;21.90;;;19.60;;
8476;SDS011;4275;42.854;23.222;2023-06-26T08:17:08;23.15;;;20.85;;
8476;SDS011;4275;42.854;23.222;2023-06-26T08:19:35;22.67;;;20.48;;
8476;SDS011;4275;42.854;23.222;2023-06-26T08:22:02;23.58;;;21.20;;
8476;SDS011;4275;42.854;23.222;2023-06-26T08:24:32;22.42;;;20.23;;
8476;SDS011;4275;42.854;23.222;2023-06-26T08:27:00;25.48;;;22.88;;
8476;SDS011;4275;42.854;23.222;2023-06-26T08:29:28;25.20;;;22.60;;
8476;SDS011;4275;42.854;23.222;2023-06-26T08:31:55;23.83;;;21.42;;
8476;SDS011;4275;42.854;23.222;2023-06-26T08:34:22;23.08;;;20.67;;
8476;SDS011;4275;42.854;23.222;2023-06-26T08:36:51;21.65;;;19.45;;
8476;SDS011;4275;42.854;23.222;2023-06-26T08:39:18;23.30;;;20.90;;
8476;SDS011;4275;42.854;23.222;2023-06-26T08:41:45;25.42;;;22.75;;
8476;SDS011;4275;42.854;23.222;2023-06-26T08:44:14;26.73;;;23.92;;
8476;SDS011;4275;42.854;23.222;2023-06-26T08:46:41;26.77;;;23.98;;
8476;SDS011;4275;42.854;23.222;2023-06-26T08:49:13;25.80;;;22.90;;
8476;SDS011;4275;42.854;23.222;2023-06-26T08:51:45;26.38;;;23.58;;
8476;SDS011;4275;42.854;23.222;2023-06-26T08:54:18;27.10;;;24.30;;
8476;SDS011;4275;42.854;23.222;2023-06-26T08:56:53;26.67;;;23.90;;
8476;SDS011;4275;42.854;23.222;2023-06-26T08:59:23;25.02;;;22.33;;
8476;SDS011;4275;42.854;23.222;2023-06-26T09:01:51;25.25;;;22.65;;
8476;SDS011;4275;42.854;23.222;2023-06-26T09:04:19;25.90;;;23.20;;
8476;SDS011;4275;42.854;23.222;2023-06-26T09:06:45;27.35;;;24.55;;
8476;SDS011;4275;42.854;23.222;2023-06-26T09:09:13;29.25;;;26.25;;
8476;SDS011;4275;42.854;23.222;2023-06-26T09:11:40;27.77;;;24.88;;
8476;SDS011;4275;42.854;23.222;2023-06-26T09:14:07;28.30;;;25.30;;
8476;SDS011;4275;42.854;23.222;2023-06-26T09:16:40;28.15;;;25.25;;
8476;SDS011;4275;42.854;23.222;2023-06-26T09:19:11;26.73;;;23.92;;
8476;SDS011;4275;42.854;23.222;2023-06-26T09:21:39;26.85;;;24.05;;
8476;SDS011;4275;42.854;23.222;2023-06-26T09:24:07;25.70;;;23.00;;
8476;SDS011;4275;42.854;23.222;2023-06-26T09:26:35;24.85;;;22.25;;
8476;SDS011;4275;42.854;23.222;2023-06-26T09:29:03;25.42;;;22.83;;
8476;SDS011;4275;42.854;23.222;2023-06-26T09:31:31;26.30;;;23.60;;
8476;SDS011;4275;42.854;23.222;2023-06-26T09:34:00;26.65;;;23.85;;
8476;SDS011;4275;42.854;23.222;2023-06-26T09:36:28;27.60;;;24.70;;
8476;SDS011;4275;42.854;23.222;2023-06-26T09:38:58;27.63;;;24.73;;
8476;SDS011;4275;42.854;23.222;2023-06-26T09:41:26;27.95;;;24.95;;
8476;SDS011;4275;42.854;23.222;2023-06-26T09:43:53;29.52;;;26.40;;
8476;SDS011;4275;42.854;23.222;2023-06-26T09:46:24;29.95;;;26.75;;
8476;SDS011;4275;42.854;23.222;2023-06-26T09:48:57;30.00;;;26.80;;
8476;SDS011;4275;42.854;23.222;2023-06-26T09:51:28;29.63;;;26.52;;
8476;SDS011;4275;42.854;23.222;2023-06-26T09:53:56;28.02;;;25.10;;
8476;SDS011;4275;42.854;23.222;2023-06-26T09:56:23;26.10;;;23.40;;
8476;SDS011;4275;42.854;23.222;2023-06-26T09:58:50;25.60;;;22.90;;
8476;SDS011;4275;42.854;23.222;2023-06-26T10:01:18;25.10;;;22.40;;
8476;SDS011;4275;42.854;23.222;2023-06-26T10:03:45;26.60;;;23.80;;
8476;SDS011;4275;42.854;23.222;2023-06-26T10:06:14;26.73;;;24.02;;
8476;SDS011;4275;42.854;23.222;2023-06-26T10:08:44;25.67;;;23.08;;
8476;SDS011;4275;42.854;23.222;2023-06-26T10:11:14;25.70;;;23.10;;
8476;SDS011;4275;42.854;23.222;2023-06-26T10:13:45;25.08;;;22.58;;
8476;SDS011;4275;42.854;23.222;2023-06-26T10:16:16;23.55;;;21.35;;
8476;SDS011;4275;42.854;23.222;2023-06-26T10:18:48;24.38;;;21.98;;
8476;SDS011;4275;42.854;23.222;2023-06-26T10:21:21;24.25;;;21.75;;
8476;SDS011;4275;42.854;23.222;2023-06-26T10:23:49;24.25;;;21.75;;
8476;SDS011;4275;42.854;23.222;2023-06-26T10:26:21;23.73;;;21.23;;
8476;SDS011;4275;42.854;23.222;2023-06-26T10:28:48;24.77;;;22.27;;
8476;SDS011;4275;42.854;23.222;2023-06-26T10:31:18;24.92;;;22.42;;
8476;SDS011;4275;42.854;23.222;2023-06-26T10:33:48;27.50;;;24.70;;
8476;SDS011;4275;42.854;23.222;2023-06-26T10:36:16;27.33;;;24.63;;
8476;SDS011;4275;42.854;23.222;2023-06-26T10:38:51;28.30;;;25.40;;
8476;SDS011;4275;42.854;23.222;2023-06-26T10:41:20;28.75;;;25.85;;
8476;SDS011;4275;42.854;23.222;2023-06-26T10:43:49;25.55;;;22.85;;
8476;SDS011;4275;42.854;23.222;2023-06-26T10:46:17;25.90;;;23.20;;
8476;SDS011;4275;42.854;23.222;2023-06-26T10:48:58;26.52;;;23.75;;
8476;SDS011;4275;42.854;23.222;2023-06-26T10:51:26;26.80;;;24.10;;
8476;SDS011;4275;42.854;23.222;2023-06-26T10:53:55;28.70;;;25.73;;
8476;SDS011;4275;42.854;23.222;2023-06-26T10:59:11;27.70;;;24.80;;
8476;SDS011;4275;42.854;23.222;2023-06-26T11:01:41;27.48;;;24.58;;
8476;SDS011;4275;42.854;23.222;2023-06-26T11:04:09;27.17;;;24.27;;
8476;SDS011;4275;42.854;23.222;2023-06-26T11:06:37;28.00;;;25.10;;
8476;SDS011;4275;42.854;23.222;2023-06-26T11:09:10;28.08;;;25.17;;
8476;SDS011;4275;42.854;23.222;2023-06-26T11:11:59;29.10;;;26.10;;
8476;SDS011;4275;42.854;23.222;2023-06-26T11:14:31;26.48;;;23.67;;
8476;SDS011;4275;42.854;23.222;2023-06-26T11:16:59;26.00;;;23.20;;
8476;SDS011;4275;42.854;23.222;2023-06-26T11:19:29;26.33;;;22.67;;
8476;SDS011;4275;42.854;23.222;2023-06-26T11:22:01;25.92;;;22.88;;
8476;SDS011;4275;42.854;23.222;2023-06-26T11:24:31;26.42;;;22.50;;
8476;SDS011;4275;42.854;23.222;2023-06-26T11:26:59;24.95;;;21.63;;
8476;SDS011;4275;42.854;23.222;2023-06-26T11:41:22;19.90;;;18.50;;
8476;SDS011;4275;42.854;23.222;2023-06-26T11:43:50;27.98;;;26.48;;
8476;SDS011;4275;42.854;23.222;2023-06-26T11:46:20;26.63;;;25.23;;
8476;SDS011;4275;42.854;23.222;2023-06-26T11:48:48;24.98;;;23.77;;
8476;SDS011;4275;42.854;23.222;2023-06-26T11:51:16;19.60;;;18.70;;
8476;SDS011;4275;42.854;23.222;2023-06-26T11:53:43;19.60;;;18.50;;
8476;SDS011;4275;42.854;23.222;2023-06-26T11:56:11;21.35;;;20.05;;
8476;SDS011;4275;42.854;23.222;2023-06-26T12:01:30;21.60;;;20.20;;
8476;SDS011;4275;42.854;23.222;2023-06-26T12:03:59;20.10;;;18.80;;
8476;SDS011;4275;42.854;23.222;2023-06-26T12:06:28;17.73;;;16.63;;
8476;SDS011;4275;42.854;23.222;2023-06-26T12:08:55;17.60;;;16.20;;
8476;SDS011;4275;42.854;23.222;2023-06-26T12:11:24;18.27;;;16.88;;
8476;SDS011;4275;42.854;23.222;2023-06-26T12:13:52;18.30;;;16.80;;
8476;SDS011;4275;42.854;23.222;2023-06-26T12:16:20;18.98;;;17.38;;
8476;SDS011;4275;42.854;23.222;2023-06-26T12:18:47;19.85;;;18.05;;
8476;SDS011;4275;42.854;23.222;2023-06-26T12:24:17;19.92;;;18.17;;
8476;SDS011;4275;42.854;23.222;2023-06-26T12:26:47;20.60;;;18.70;;
8476;SDS011;4275;42.854;23.222;2023-06-26T12:29:17;19.35;;;17.65;;
8476;SDS011;4275;42.854;23.222;2023-06-26T12:31:48;20.75;;;18.85;;
8476;SDS011;4275;42.854;23.222;2023-06-26T12:34:17;21.20;;;19.20;;
8476;SDS011;4275;42.854;23.222;2023-06-26T12:36:47;21.23;;;19.13;;
8476;SDS011;4275;42.854;23.222;2023-06-26T12:39:15;24.42;;;22.00;;
8476;SDS011;4275;42.854;23.222;2023-06-26T12:41:44;23.38;;;21.08;;
8476;SDS011;4275;42.854;23.222;2023-06-26T12:44:21;22.35;;;20.15;;
8476;SDS011;4275;42.854;23.222;2023-06-26T12:46:55;22.90;;;20.67;;
8476;SDS011;4275;42.854;23.222;2023-06-26T12:49:29;21.75;;;19.65;;
8476;SDS011;4275;42.854;23.222;2023-06-26T12:51:57;23.45;;;21.05;;
8476;SDS011;4275;42.854;23.222;2023-06-26T12:54:25;22.02;;;19.83;;
8476;SDS011;4275;42.854;23.222;2023-06-26T12:56:52;22.23;;;20.02;;
8476;SDS011;4275;42.854;23.222;2023-06-26T12:59:19;22.25;;;20.05;;
8476;SDS011;4275;42.854;23.222;2023-06-26T13:01:46;21.13;;;19.02;;
8476;SDS011;4275;42.854;23.222;2023-06-26T13:04:14;21.98;;;19.77;;
8476;SDS011;4275;42.854;23.222;2023-06-26T13:06:42;21.50;;;19.40;;
8476;SDS011;4275;42.854;23.222;2023-06-26T13:09:09;21.42;;;19.42;;
8476;SDS011;4275;42.854;23.222;2023-06-26T13:11:37;21.35;;;19.33;;
8476;SDS011;4275;42.854;23.222;2023-06-26T13:14:04;22.60;;;20.40;;
8476;SDS011;4275;42.854;23.222;2023-06-26T13:16:31;21.40;;;19.40;;
8476;SDS011;4275;42.854;23.222;2023-06-26T13:18:58;21.38;;;19.38;;
8476;SDS011;4275;42.854;23.222;2023-06-26T13:21:27;21.45;;;19.35;;
8476;SDS011;4275;42.854;23.222;2023-06-26T13:23:55;21.27;;;19.20;;
8476;SDS011;4275;42.854;23.222;2023-06-26T13:26:22;19.90;;;17.90;;
8476;SDS011;4275;42.854;23.222;2023-06-26T13:28:50;22.55;;;20.25;;
8476;SDS011;4275;42.854;23.222;2023-06-26T13:31:17;23.83;;;21.33;;
8476;SDS011;4275;42.854;23.222;2023-06-26T13:33:44;26.50;;;23.60;;
8476;SDS011;4275;42.854;23.222;2023-06-26T13:36:13;26.75;;;23.35;;
8476;SDS011;4275;42.854;23.222;2023-06-26T13:38:42;26.73;;;22.73;;
8476;SDS011;4275;42.854;23.222;2023-06-26T13:41:09;28.25;;;23.80;;
8476;SDS011;4275;42.854;23.222;2023-06-26T13:43:36;28.23;;;24.13;;
8476;SDS011;4275;42.854;23.222;2023-06-26T13:46:03;26.88;;;22.33;;
8476;SDS011;4275;42.854;23.222;2023-06-26T13:48:30;29.10;;;24.60;;
8476;SDS011;4275;42.854;23.222;2023-06-26T13:50:58;28.10;;;23.85;;
8476;SDS011;4275;42.854;23.222;2023-06-26T13:53:25;29.17;;;25.08;;
8476;SDS011;4275;42.854;23.222;2023-06-26T13:55:53;29.23;;;24.95;;
8476;SDS011;4275;42.854;23.222;2023-06-26T13:58:20;29.70;;;24.98;;
8476;SDS011;4275;42.854;23.222;2023-06-26T14:00:47;29.75;;;24.70;;
8476;SDS011;4275;42.854;23.222;2023-06-26T14:03:14;28.95;;;24.05;;
8476;SDS011;4275;42.854;23.222;2023-06-26T14:05:43;28.45;;;24.23;;
8476;SDS011;4275;42.854;23.222;2023-06-26T14:08:10;29.33;;;24.95;;
8476;SDS011;4275;42.854;23.222;2023-06-26T14:10:37;28.30;;;24.50;;
8476;SDS011;4275;42.854;23.222;2023-06-26T14:13:05;29.60;;;25.25;;
8476;SDS011;4275;42.854;23.222;2023-06-26T14:15:34;28.77;;;24.90;;
8476;SDS011;4275;42.854;23.222;2023-06-26T14:18:01;28.90;;;24.90;;
8476;SDS011;4275;42.854;23.222;2023-06-26T14:20:29;28.42;;;25.33;;
8476;SDS011;4275;42.854;23.222;2023-06-26T14:22:57;29.25;;;25.40;;
8476;SDS011;4275;42.854;23.222;2023-06-26T14:25:25;28.95;;;25.35;;
8476;SDS011;4275;42.854;23.222;2023-06-26T14:27:53;28.63;;;25.10;;
8476;SDS011;4275;42.854;23.222;2023-06-26T14:30:22;29.42;;;25.63;;
8476;SDS011;4275;42.854;23.222;2023-06-26T14:32:49;28.23;;;24.65;;
8476;SDS011;4275;42.854;23.222;2023-06-26T14:35:16;28.13;;;25.02;;
8476;SDS011;4275;42.854;23.222;2023-06-26T14:37:43;29.48;;;25.83;;
8476;SDS011;4275;42.854;23.222;2023-06-26T14:40:10;28.88;;;25.77;;
8476;SDS011;4275;42.854;23.222;2023-06-26T14:42:38;27.80;;;24.80;;
8476;SDS011;4275;42.854;23.222;2023-06-26T14:45:05;28.25;;;24.38;;
8476;SDS011;4275;42.854;23.222;2023-06-26T14:47:35;28.02;;;25.02;;
8476;SDS011;4275;42.854;23.222;2023-06-26T14:50:02;27.92;;;24.60;;
8476;SDS011;4275;42.854;23.222;2023-06-26T14:52:29;27.52;;;24.52;;
8476;SDS011;4275;42.854;23.222;2023-06-26T14:54:56;27.80;;;24.52;;
8476;SDS011;4275;42.854;23.222;2023-06-26T14:57:23;28.05;;;24.60;;
8476;SDS011;4275;42.854;23.222;2023-06-26T14:59:50;26.80;;;23.80;;
8476;SDS011;4275;42.854;23.222;2023-06-26T15:02:17;28.50;;;24.40;;
8476;SDS011;4275;42.854;23.222;2023-06-26T15:04:45;27.83;;;24.55;;
8476;SDS011;4275;42.854;23.222;2023-06-26T15:07:12;26.80;;;23.90;;
8476;SDS011;4275;42.854;23.222;2023-06-26T15:09:39;28.23;;;23.73;;
8476;SDS011;4275;42.854;23.222;2023-06-26T15:12:07;27.45;;;23.75;;
8476;SDS011;4275;42.854;23.222;2023-06-26T15:14:34;27.80;;;24.23;;
8476;SDS011;4275;42.854;23.222;2023-06-26T15:17:01;28.95;;;24.55;;
8476;SDS011;4275;42.854;23.222;2023-06-26T15:19:28;27.70;;;24.40;;
8476;SDS011;4275;42.854;23.222;2023-06-26T15:21:56;27.65;;;23.60;;
8476;SDS011;4275;42.854;23.222;2023-06-26T15:24:23;28.02;;;23.88;;
8476;SDS011;4275;42.854;23.222;2023-06-26T15:26:50;27.45;;;23.75;;
8476;SDS011;4275;42.854;23.222;2023-06-26T15:29:17;27.42;;;24.35;;
8476;SDS011;4275;42.854;23.222;2023-06-26T15:31:44;26.13;;;23.33;;
8476;SDS011;4275;42.854;23.222;2023-06-26T15:34:11;25.98;;;23.17;;
8476;SDS011;4275;42.854;23.222;2023-06-26T15:36:38;25.75;;;22.90;;
8476;SDS011;4275;42.854;23.222;2023-06-26T15:39:07;26.33;;;23.00;;
8476;SDS011;4275;42.854;23.222;2023-06-26T15:41:33;25.70;;;22.63;;
8476;SDS011;4275;42.854;23.222;2023-06-26T15:44:02;25.00;;;21.92;;
8476;SDS011;4275;42.854;23.222;2023-06-26T15:46:30;25.67;;;22.30;;
8476;SDS011;4275;42.854;23.222;2023-06-26T15:48:56;25.75;;;22.42;;
8476;SDS011;4275;42.854;23.222;2023-06-26T15:51:23;24.60;;;21.55;;
8476;SDS011;4275;42.854;23.222;2023-06-26T15:53:50;25.60;;;22.45;;
8476;SDS011;4275;42.854;23.222;2023-06-26T15:56:19;26.10;;;22.85;;
8476;SDS011;4275;42.854;23.222;2023-06-26T15:58:46;25.13;;;22.38;;
8476;SDS011;4275;42.854;23.222;2023-06-26T16:01:14;27.30;;;24.20;;
8476;SDS011;4275;42.854;23.222;2023-06-26T16:03:41;25.77;;;22.98;;
8476;SDS011;4275;42.854;23.222;2023-06-26T16:06:09;27.48;;;24.02;;